createdAt,value
2018-10-21T00:00:40.512Z,77.11
2018-10-21T00:01:21.077Z,77.01
2018-10-21T00:02:01.630Z,77.01
2018-10-21T00:02:42.192Z,77.2
2018-10-21T00:03:22.797Z,76.73
2018-10-21T00:04:03.352Z,76.92
2018-10-21T00:04:43.924Z,77.11
2018-10-21T00:05:24.471Z,77.01
2018-10-21T00:06:05.058Z,77.2
2018-10-21T00:06:45.630Z,77.69
2018-10-21T00:07:26.189Z,77.4
2018-10-21T00:08:06.748Z,77.49
2018-10-21T00:08:47.316Z,77.69
2018-10-21T00:09:27.883Z,77.4
2018-10-21T00:10:08.459Z,77.4
2018-10-21T00:10:49.015Z,77.49
2018-10-21T00:11:29.579Z,77.11
2018-10-21T00:12:10.136Z,77.59
2018-10-21T00:12:50.711Z,77.2
2018-10-21T00:13:31.289Z,77.69
2018-10-21T00:14:11.838Z,77.49
2018-10-21T00:14:52.416Z,77.4
2018-10-21T00:15:33.099Z,77.87
2018-10-21T00:16:13.584Z,77.87
2018-10-21T00:16:54.127Z,77.87
2018-10-21T00:17:34.679Z,77.87
2018-10-21T00:18:15.229Z,77.78
2018-10-21T00:18:55.793Z,77.87
2018-10-21T00:19:36.365Z,78.41
2018-10-21T00:20:16.937Z,78.25
2018-10-21T00:20:57.505Z,78.5
2018-10-21T00:21:38.045Z,78.41
2018-10-21T00:22:18.599Z,78.5
2018-10-21T00:22:59.165Z,78.41
2018-10-21T00:23:39.743Z,78.25
2018-10-21T00:24:20.279Z,78.5
2018-10-21T00:25:00.859Z,78.5
2018-10-21T00:25:41.417Z,78.22
2018-10-21T00:26:21.968Z,78.41
2018-10-21T00:27:02.537Z,78.22
2018-10-21T00:27:43.078Z,78.41
2018-10-21T00:28:23.648Z,78.78
2018-10-21T00:29:04.216Z,78.78
2018-10-21T00:29:44.758Z,78.69
2018-10-21T00:30:25.317Z,78.59
2018-10-21T00:31:05.890Z,78.78
2018-10-21T00:31:46.461Z,78.88
2018-10-21T00:32:27.011Z,78.78
2018-10-21T00:33:07.694Z,79.27
2018-10-21T00:33:48.173Z,79.27
2018-10-21T00:34:28.733Z,79.36
2018-10-21T00:35:09.328Z,79.27
2018-10-21T00:35:49.888Z,78.98
2018-10-21T00:36:30.449Z,79.55
2018-10-21T00:37:10.994Z,79.17
2018-10-21T00:37:51.569Z,79.27
2018-10-21T00:38:32.130Z,79.17
2018-10-21T00:39:12.829Z,79.27
2018-10-21T00:39:53.253Z,79.74
2018-10-21T00:40:33.871Z,79.74
2018-10-21T00:41:14.446Z,79.46
2018-10-21T00:41:55.043Z,79.27
2018-10-21T00:42:35.608Z,79.93
2018-10-21T00:43:16.163Z,79.83
2018-10-21T00:43:56.730Z,79.93
2018-10-21T00:44:37.292Z,79.74
2018-10-21T00:45:17.864Z,79.36
2018-10-21T00:45:58.423Z,79.27
2018-10-21T00:46:39.001Z,79.46
2018-10-21T00:47:19.549Z,79.36
2018-10-21T00:48:00.115Z,79.17
2018-10-21T00:48:40.668Z,80.12
2018-10-21T00:49:21.265Z,79.74
2018-10-21T00:50:01.806Z,79.74
2018-10-21T00:50:42.361Z,79.93
2018-10-21T00:51:22.923Z,79.55
2018-10-21T00:52:03.494Z,79.74
2018-10-21T00:52:44.075Z,79.36
2018-10-21T00:53:24.671Z,80.12
2018-10-21T00:54:05.263Z,80.12
2018-10-21T00:54:45.822Z,80.31
2018-10-21T00:55:26.385Z,80.41
2018-10-21T00:56:06.974Z,80.5
2018-10-21T00:56:47.527Z,80.5
2018-10-21T00:57:28.105Z,80.69
2018-10-21T00:58:08.667Z,80.31
2018-10-21T00:58:49.250Z,80.31
2018-10-21T00:59:29.833Z,80.5
2018-10-21T01:00:10.412Z,80.5
2018-10-21T01:00:50.934Z,80.22
2018-10-21T01:01:31.499Z,80.31
2018-10-21T01:02:12.060Z,80.98
2018-10-21T01:02:52.628Z,80.98
2018-10-21T01:03:33.197Z,80.79
2018-10-21T01:04:13.792Z,80.79
2018-10-21T01:04:54.321Z,80.5
2018-10-21T01:05:34.882Z,80.41
2018-10-21T01:06:15.480Z,81.07
2018-10-21T01:06:56.033Z,81.26
2018-10-21T01:07:36.587Z,81.07
2018-10-21T01:08:17.149Z,81.07
2018-10-21T01:08:57.714Z,81.17
2018-10-21T01:09:38.296Z,81.17
2018-10-21T01:10:18.878Z,81.26
2018-10-21T01:10:59.435Z,81.46
2018-10-21T01:11:39.995Z,80.88
2018-10-21T01:12:20.569Z,81.07
2018-10-21T01:13:01.136Z,81.07
2018-10-21T01:13:41.688Z,81.36
2018-10-21T01:14:22.254Z,81.55
2018-10-21T01:15:02.847Z,81.26
2018-10-21T01:15:43.374Z,81.55
2018-10-21T01:16:23.923Z,81.55
2018-10-21T01:17:04.497Z,81.74
2018-10-21T01:17:45.067Z,81.46
2018-10-21T01:18:25.657Z,81.26
2018-10-21T01:19:06.218Z,81.46
2018-10-21T01:19:46.775Z,81.46
2018-10-21T01:20:27.381Z,81.07
2018-10-21T01:21:07.936Z,81.55
2018-10-21T01:21:48.507Z,81.65
2018-10-21T01:22:29.058Z,81.74
2018-10-21T01:23:09.655Z,81.46
2018-10-21T01:23:50.226Z,81.46
2018-10-21T01:24:30.811Z,82.03
2018-10-21T01:25:11.361Z,82.03
2018-10-21T01:25:51.938Z,81.93
2018-10-21T01:26:32.474Z,81.93
2018-10-21T01:27:13.288Z,82.31
2018-10-21T01:27:53.587Z,81.93
2018-10-21T01:28:34.139Z,82.21
2018-10-21T01:29:14.731Z,82.6
2018-10-21T01:29:55.291Z,82.5
2018-10-21T01:30:35.857Z,82.6
2018-10-21T01:31:16.626Z,82.79
2018-10-21T01:31:57.189Z,82.6
2018-10-21T01:32:37.755Z,82.69
2018-10-21T01:33:18.326Z,82.89
2018-10-21T01:33:58.892Z,82.6
2018-10-21T01:34:39.486Z,82.41
2018-10-21T01:35:20.045Z,82.41
2018-10-21T01:36:00.632Z,82.79
2018-10-21T01:36:41.262Z,82.98
2018-10-21T01:37:21.757Z,82.69
2018-10-21T01:38:02.367Z,82.79
2018-10-21T01:38:42.903Z,82.89
2018-10-21T01:39:23.470Z,82.69
2018-10-21T01:40:04.068Z,83.26
2018-10-21T01:40:44.644Z,83.36
2018-10-21T01:41:25.199Z,82.6
2018-10-21T01:42:05.789Z,83.26
2018-10-21T01:42:46.339Z,82.89
2018-10-21T01:43:26.917Z,82.89
2018-10-21T01:44:07.472Z,83.45
2018-10-21T01:44:48.093Z,83.36
2018-10-21T01:45:28.681Z,82.89
2018-10-21T01:46:09.262Z,82.6
2018-10-21T01:46:49.835Z,83.36
2018-10-21T01:47:30.409Z,83.17
2018-10-21T01:48:10.976Z,83.36
2018-10-21T01:48:51.568Z,83.36
2018-10-21T01:49:32.166Z,82.65
2018-10-21T01:50:12.805Z,82.6
2018-10-21T01:50:53.391Z,83.32
2018-10-21T01:51:33.880Z,82.75
2018-10-21T01:52:14.454Z,83.41
2018-10-21T01:52:55.040Z,83.13
2018-10-21T01:53:35.614Z,83.13
2018-10-21T01:54:16.148Z,83.13
2018-10-21T01:54:56.705Z,83.03
2018-10-21T01:55:37.275Z,82.84
2018-10-21T01:56:17.836Z,83.32
2018-10-21T01:56:58.410Z,83.22
2018-10-21T01:57:38.956Z,83.32
2018-10-21T01:58:19.516Z,83.22
2018-10-21T01:59:00.074Z,83.32
2018-10-21T01:59:40.629Z,83.13
2018-10-21T02:00:21.201Z,83.32
2018-10-21T02:01:01.764Z,83.03
2018-10-21T02:01:42.351Z,83.22
2018-10-21T02:02:22.911Z,83.03
2018-10-21T02:03:03.492Z,83.32
2018-10-21T02:03:44.034Z,83.13
2018-10-21T02:04:24.576Z,83.51
2018-10-21T02:05:05.137Z,83.7
2018-10-21T02:05:45.709Z,83.32
2018-10-21T02:06:26.291Z,83.7
2018-10-21T02:07:06.848Z,83.7
2018-10-21T02:07:47.407Z,83.8
2018-10-21T02:08:27.965Z,82.93
2018-10-21T02:09:08.619Z,82.93
2018-10-21T02:09:49.081Z,83.41
2018-10-21T02:10:29.640Z,83.7
2018-10-21T02:11:10.199Z,83.8
2018-10-21T02:11:50.791Z,83.61
2018-10-21T02:12:31.350Z,83.7
2018-10-21T02:13:11.922Z,83.41
2018-10-21T02:13:52.461Z,83.98
2018-10-21T02:14:33.010Z,83.98
2018-10-21T02:15:13.684Z,84.17
2018-10-21T02:15:54.135Z,84.27
2018-10-21T02:16:34.699Z,84.08
2018-10-21T02:17:15.251Z,83.98
2018-10-21T02:17:55.812Z,84.27
2018-10-21T02:18:36.397Z,84.46
2018-10-21T02:19:16.924Z,84.27
2018-10-21T02:19:57.479Z,84.27
2018-10-21T02:20:38.047Z,84.27
2018-10-21T02:21:18.610Z,84.17
2018-10-21T02:21:59.163Z,84.27
2018-10-21T02:22:39.745Z,84.27
2018-10-21T02:23:20.293Z,84.08
2018-10-21T02:24:00.848Z,84.27
2018-10-21T02:24:41.412Z,83.89
2018-10-21T02:25:21.970Z,84.17
2018-10-21T02:26:02.512Z,83.89
2018-10-21T02:26:43.117Z,84.08
2018-10-21T02:27:23.654Z,84.08
2018-10-21T02:28:04.224Z,84.08
2018-10-21T02:28:44.779Z,84.27
2018-10-21T02:29:25.367Z,84.27
2018-10-21T02:30:05.914Z,84.27
2018-10-21T02:30:46.478Z,84.08
2018-10-21T02:31:27.042Z,84.17
2018-10-21T02:32:07.603Z,84.08
2018-10-21T02:32:48.190Z,84.17
2018-10-21T02:33:28.884Z,84.17
2018-10-21T02:34:09.308Z,84.27
2018-10-21T02:34:49.851Z,84.17
2018-10-21T02:35:30.420Z,84.27
2018-10-21T02:36:10.985Z,84.46
2018-10-21T02:36:51.548Z,84.56
2018-10-21T02:37:32.100Z,84.65
2018-10-21T02:38:12.656Z,84.75
2018-10-21T02:38:53.205Z,84.75
2018-10-21T02:39:33.783Z,84.84
2018-10-21T02:40:14.341Z,84.75
2018-10-21T02:40:54.916Z,84.56
2018-10-21T02:41:35.477Z,84.65
2018-10-21T02:42:16.037Z,84.46
2018-10-21T02:42:56.591Z,85.13
2018-10-21T02:43:37.157Z,85.13
2018-10-21T02:44:17.707Z,84.84
2018-10-21T02:44:58.315Z,84.46
2018-10-21T02:45:38.837Z,84.84
2018-10-21T02:46:19.394Z,84.94
2018-10-21T02:46:59.968Z,84.46
2018-10-21T02:47:40.525Z,83.89
2018-10-21T02:48:21.080Z,84.27
2018-10-21T02:49:01.644Z,84.65
2018-10-21T02:49:42.204Z,84.56
2018-10-21T02:50:22.757Z,84.56
2018-10-21T02:51:03.330Z,84.36
2018-10-21T02:51:43.885Z,84.36
2018-10-21T02:52:24.445Z,84.36
2018-10-21T02:53:05.001Z,84.56
2018-10-21T02:53:45.559Z,84.46
2018-10-21T02:54:26.103Z,84.56
2018-10-21T02:55:06.665Z,84.75
2018-10-21T02:55:48.009Z,84.84
2018-10-21T02:56:27.824Z,84.94
2018-10-21T02:57:08.402Z,84.84
2018-10-21T02:57:48.935Z,84.65
2018-10-21T02:58:29.479Z,84.65
2018-10-21T02:59:10.030Z,84.46
2018-10-21T02:59:50.590Z,84.94
2018-10-21T03:00:31.147Z,84.65
2018-10-21T03:01:11.691Z,84.56
2018-10-21T03:01:52.254Z,84.94
2018-10-21T03:02:32.799Z,85.13
2018-10-21T03:03:13.403Z,84.75
2018-10-21T03:03:53.912Z,84.7
2018-10-21T03:04:34.499Z,84.56
2018-10-21T03:05:15.043Z,84.84
2018-10-21T03:05:55.618Z,84.94
2018-10-21T03:06:36.180Z,84.75
2018-10-21T03:07:16.750Z,84.46
2018-10-21T03:07:57.321Z,84.46
2018-10-21T03:08:37.882Z,84.42
2018-10-21T03:09:18.453Z,84.94
2018-10-21T03:09:59.009Z,84.84
2018-10-21T03:10:39.571Z,84.46
2018-10-21T03:11:20.138Z,84.94
2018-10-21T03:12:00.712Z,84.65
2018-10-21T03:12:41.274Z,84.89
2018-10-21T03:13:21.846Z,84.75
2018-10-21T03:14:02.392Z,84.94
2018-10-21T03:14:42.954Z,84.65
2018-10-21T03:15:23.524Z,84.75
2018-10-21T03:16:04.086Z,85.18
2018-10-21T03:16:44.648Z,84.89
2018-10-21T03:17:25.209Z,84.94
2018-10-21T03:18:05.769Z,85.03
2018-10-21T03:18:46.304Z,84.52
2018-10-21T03:19:26.862Z,84.89
2018-10-21T03:20:07.441Z,84.89
2018-10-21T03:20:47.984Z,84.89
2018-10-21T03:21:28.548Z,84.89
2018-10-21T03:22:09.091Z,84.8
2018-10-21T03:22:49.655Z,85.22
2018-10-21T03:23:30.230Z,84.8
2018-10-21T03:24:10.804Z,85.08
2018-10-21T03:24:51.371Z,85.08
2018-10-21T03:25:31.933Z,84.8
2018-10-21T03:26:12.483Z,85.18
2018-10-21T03:26:53.055Z,85.37
2018-10-21T03:27:33.609Z,85.18
2018-10-21T03:28:14.158Z,85.37
2018-10-21T03:28:54.754Z,85.37
2018-10-21T03:29:35.319Z,85.08
2018-10-21T03:30:15.875Z,84.99
2018-10-21T03:30:56.458Z,85.08
2018-10-21T03:31:37.017Z,84.99
2018-10-21T03:32:17.591Z,84.99
2018-10-21T03:32:58.354Z,84.99
2018-10-21T03:33:38.766Z,85.08
2018-10-21T03:34:19.273Z,84.99
2018-10-21T03:34:59.835Z,84.99
2018-10-21T03:35:40.406Z,85.28
2018-10-21T03:36:20.952Z,85.28
2018-10-21T03:37:01.507Z,85.28
2018-10-21T03:37:42.078Z,85.18
2018-10-21T03:38:22.665Z,85.47
2018-10-21T03:39:03.308Z,85.28
2018-10-21T03:39:43.795Z,85.47
2018-10-21T03:40:24.350Z,85.94
2018-10-21T03:41:04.930Z,85.56
2018-10-21T03:41:45.503Z,85.75
2018-10-21T03:42:26.051Z,85.66
2018-10-21T03:43:06.627Z,85.75
2018-10-21T03:43:47.194Z,85.66
2018-10-21T03:44:27.765Z,85.47
2018-10-21T03:45:08.319Z,85.47
2018-10-21T03:45:48.872Z,85.75
2018-10-21T03:46:29.448Z,85.66
2018-10-21T03:47:10.018Z,85.75
2018-10-21T03:47:50.603Z,85.47
2018-10-21T03:48:31.166Z,85.37
2018-10-21T03:49:11.737Z,85.47
2018-10-21T03:49:52.307Z,85.47
2018-10-21T03:50:32.862Z,85.66
2018-10-21T03:51:13.418Z,85.47
2018-10-21T03:51:54.016Z,85.56
2018-10-21T03:52:34.554Z,85.08
2018-10-21T03:53:15.111Z,85.18
2018-10-21T03:53:55.682Z,85.08
2018-10-21T03:54:36.239Z,85.94
2018-10-21T03:55:16.827Z,85.75
2018-10-21T03:55:57.389Z,85.94
2018-10-21T03:56:37.944Z,85.94
2018-10-21T03:57:18.502Z,85.85
2018-10-21T03:57:59.100Z,85.85
2018-10-21T03:58:39.620Z,86.04
2018-10-21T03:59:20.181Z,85.85
2018-10-21T04:00:00.741Z,85.94
2018-10-21T04:00:41.292Z,85.94
2018-10-21T04:01:21.864Z,85.85
2018-10-21T04:02:02.422Z,85.66
2018-10-21T04:02:42.984Z,85.56
2018-10-21T04:03:23.510Z,85.75
2018-10-21T04:04:04.130Z,85.94
2018-10-21T04:04:44.627Z,86.13
2018-10-21T04:05:25.198Z,85.75
2018-10-21T04:06:05.749Z,85.08
2018-10-21T04:06:46.329Z,85.37
2018-10-21T04:07:26.892Z,85.56
2018-10-21T04:08:07.447Z,85.47
2018-10-21T04:08:48.021Z,85.37
2018-10-21T04:09:28.575Z,85.94
2018-10-21T04:10:09.218Z,85.94
2018-10-21T04:10:49.696Z,85.94
2018-10-21T04:11:30.314Z,86.13
2018-10-21T04:12:10.883Z,85.66
2018-10-21T04:12:51.467Z,85.75
2018-10-21T04:13:32.035Z,86.04
2018-10-21T04:14:12.589Z,85.94
2018-10-21T04:14:53.173Z,86.04
2018-10-21T04:15:33.739Z,86.42
2018-10-21T04:16:14.421Z,86.42
2018-10-21T04:16:54.869Z,86.42
2018-10-21T04:17:35.433Z,86.13
2018-10-21T04:18:16.001Z,85.85
2018-10-21T04:18:56.533Z,86.04
2018-10-21T04:19:37.116Z,85.75
2018-10-21T04:20:17.668Z,85.75
2018-10-21T04:20:58.232Z,86.13
2018-10-21T04:21:38.811Z,85.18
2018-10-21T04:22:19.374Z,85.47
2018-10-21T04:22:59.936Z,85.37
2018-10-21T04:23:40.482Z,85.75
2018-10-21T04:24:21.071Z,85.37
2018-10-21T04:25:01.601Z,85.94
2018-10-21T04:25:42.163Z,85.47
2018-10-21T04:26:22.767Z,85.47
2018-10-21T04:27:03.331Z,85.08
2018-10-21T04:27:43.895Z,85.37
2018-10-21T04:28:24.455Z,85.75
2018-10-21T04:29:04.998Z,85.08
2018-10-21T04:29:45.551Z,85.08
2018-10-21T04:30:26.144Z,85.56
2018-10-21T04:31:06.699Z,85.56
2018-10-21T04:31:47.236Z,85.47
2018-10-21T04:32:27.785Z,85.56
2018-10-21T04:33:08.363Z,85.08
2018-10-21T04:33:49.032Z,85.37
2018-10-21T04:34:29.603Z,85.94
2018-10-21T04:35:10.109Z,85.85
2018-10-21T04:35:50.697Z,85.94
2018-10-21T04:36:31.266Z,85.85
2018-10-21T04:37:11.836Z,85.94
2018-10-21T04:37:52.386Z,85.94
2018-10-21T04:38:32.978Z,85.94
2018-10-21T04:39:13.532Z,86.13
2018-10-21T04:39:54.079Z,86.32
2018-10-21T04:40:35.518Z,86.42
2018-10-21T04:41:15.212Z,85.94
2018-10-21T04:41:55.777Z,85.85
2018-10-21T04:42:36.336Z,85.94
2018-10-21T04:43:16.934Z,85.94
2018-10-21T04:43:57.486Z,85.94
2018-10-21T04:44:38.061Z,85.94
2018-10-21T04:45:18.626Z,86.04
2018-10-21T04:45:59.164Z,85.94
2018-10-21T04:46:39.732Z,86.04
2018-10-21T04:47:20.302Z,85.66
2018-10-21T04:48:00.873Z,86.04
2018-10-21T04:48:41.418Z,85.66
2018-10-21T04:49:21.967Z,85.85
2018-10-21T04:50:02.517Z,85.94
2018-10-21T04:50:43.065Z,85.94
2018-10-21T04:51:23.633Z,86.61
2018-10-21T04:52:04.255Z,86.32
2018-10-21T04:52:44.769Z,86.32
2018-10-21T04:53:25.317Z,86.9
2018-10-21T04:54:05.871Z,86.42
2018-10-21T04:54:46.475Z,86.61
2018-10-21T04:55:27.030Z,86.99
2018-10-21T04:56:07.580Z,86.8
2018-10-21T04:56:48.142Z,86.8
2018-10-21T04:57:28.709Z,87.08
2018-10-21T04:58:09.365Z,86.85
2018-10-21T04:58:49.833Z,87.08
2018-10-21T04:59:30.382Z,87.56
2018-10-21T05:00:10.942Z,87.85
2018-10-21T05:00:51.566Z,88.23
2018-10-21T05:01:32.076Z,88.23
2018-10-21T05:02:12.631Z,87.9
2018-10-21T05:02:53.192Z,88.32
2018-10-21T05:03:33.762Z,88.09
2018-10-21T05:04:14.412Z,88.04
2018-10-21T05:04:54.878Z,88.04
2018-10-21T05:05:35.440Z,87.94
2018-10-21T05:06:15.998Z,88.32
2018-10-21T05:06:56.563Z,87.75
2018-10-21T05:07:37.217Z,87.85
2018-10-21T05:08:17.676Z,88.13
2018-10-21T05:08:58.234Z,87.75
2018-10-21T05:09:38.790Z,86.76
2018-10-21T05:10:19.354Z,86.22
2018-10-21T05:10:59.928Z,86.28
2018-10-21T05:11:40.488Z,86.28
2018-10-21T05:12:21.039Z,85.85
2018-10-21T05:13:01.626Z,85.94
2018-10-21T05:13:42.192Z,85.99
2018-10-21T05:14:22.756Z,85.61
2018-10-21T05:15:03.356Z,85.94
2018-10-21T05:15:43.867Z,85.61
2018-10-21T05:16:24.504Z,85.9
2018-10-21T05:17:05.005Z,86.47
2018-10-21T05:17:45.575Z,86.94
2018-10-21T05:18:26.144Z,87.56
2018-10-21T05:19:06.720Z,87.99
2018-10-21T05:19:47.281Z,88.42
2018-10-21T05:20:27.854Z,89.04
2018-10-21T05:21:08.408Z,88.85
2018-10-21T05:21:48.968Z,89.47
2018-10-21T05:22:29.523Z,89.42
2018-10-21T05:23:10.078Z,88.7
2018-10-21T05:23:50.642Z,88.99
2018-10-21T05:24:31.218Z,88.42
2018-10-21T05:25:11.782Z,88.18
2018-10-21T05:25:52.327Z,88.18
2018-10-21T05:26:32.893Z,88.32
2018-10-21T05:27:13.452Z,87.99
2018-10-21T05:27:54.104Z,87.37
2018-10-21T05:28:34.582Z,87.42
2018-10-21T05:29:15.160Z,87.32
2018-10-21T05:29:55.710Z,87.23
2018-10-21T05:30:36.278Z,86.94
2018-10-21T05:31:16.858Z,87.13
2018-10-21T05:31:57.420Z,86.76
2018-10-21T05:32:37.963Z,86.85
2018-10-21T05:33:18.527Z,87.04
2018-10-21T05:33:59.102Z,86.38
2018-10-21T05:34:39.660Z,86.66
2018-10-21T05:35:20.222Z,86.57
2018-10-21T05:36:00.769Z,86.57
2018-10-21T05:36:41.344Z,86.38
2018-10-21T05:37:21.907Z,86.57
2018-10-21T05:38:02.566Z,87.32
2018-10-21T05:38:43.034Z,86.94
2018-10-21T05:39:23.604Z,86.85
2018-10-21T05:40:04.201Z,86.94
2018-10-21T05:40:44.774Z,87.13
2018-10-21T05:41:25.310Z,87.52
2018-10-21T05:42:05.884Z,87.23
2018-10-21T05:42:46.423Z,87.23
2018-10-21T05:43:27.026Z,87.61
2018-10-21T05:44:07.587Z,86.85
2018-10-21T05:44:48.147Z,86.85
2018-10-21T05:45:28.703Z,86.57
2018-10-21T05:46:09.326Z,86.57
2018-10-21T05:46:49.901Z,86.28
2018-10-21T05:47:30.410Z,85.71
2018-10-21T05:48:10.954Z,85.8
2018-10-21T05:48:51.524Z,85.9
2018-10-21T05:49:32.076Z,85.99
2018-10-21T05:50:12.635Z,85.61
2018-10-21T05:50:53.209Z,85.99
2018-10-21T05:51:33.787Z,86.18
2018-10-21T05:52:14.407Z,86.38
2018-10-21T05:52:54.916Z,86.57
2018-10-21T05:53:35.468Z,86.18
2018-10-21T05:54:16.033Z,86.66
2018-10-21T05:54:56.583Z,86.38
2018-10-21T05:55:37.143Z,86.66
2018-10-21T05:56:17.692Z,86.57
2018-10-21T05:56:58.244Z,86.57
2018-10-21T05:57:38.805Z,86.18
2018-10-21T05:58:19.440Z,86.57
2018-10-21T05:58:59.945Z,86.28
2018-10-21T05:59:40.513Z,86.76
2018-10-21T06:00:21.071Z,86.85
2018-10-21T06:01:01.630Z,86.66
2018-10-21T06:01:42.203Z,87.04
2018-10-21T06:02:22.757Z,86.94
2018-10-21T06:03:03.424Z,87.04
2018-10-21T06:03:43.882Z,86.94
2018-10-21T06:04:24.441Z,86.85
2018-10-21T06:05:04.972Z,87.13
2018-10-21T06:05:45.565Z,87.04
2018-10-21T06:06:26.124Z,87.04
2018-10-21T06:07:06.705Z,86.85
2018-10-21T06:07:47.284Z,87.13
2018-10-21T06:08:27.835Z,87.42
2018-10-21T06:09:08.400Z,87.52
2018-10-21T06:09:48.980Z,87.52
2018-10-21T06:10:29.544Z,87.42
2018-10-21T06:11:10.152Z,87.61
2018-10-21T06:11:50.717Z,87.23
2018-10-21T06:12:31.282Z,87.42
2018-10-21T06:13:11.839Z,87.32
2018-10-21T06:13:52.393Z,87.99
2018-10-21T06:14:32.979Z,87.42
2018-10-21T06:15:13.524Z,87.13
2018-10-21T06:15:54.202Z,87.13
2018-10-21T06:16:34.643Z,87.61
2018-10-21T06:17:15.218Z,87.23
2018-10-21T06:17:55.771Z,87.32
2018-10-21T06:18:36.364Z,87.23
2018-10-21T06:19:16.973Z,87.52
2018-10-21T06:19:57.515Z,87.23
2018-10-21T06:20:38.089Z,87.42
2018-10-21T06:21:18.726Z,87.9
2018-10-21T06:21:59.334Z,87.99
2018-10-21T06:22:39.849Z,87.52
2018-10-21T06:23:20.403Z,88.37
2018-10-21T06:24:00.997Z,88.28
2018-10-21T06:24:41.585Z,87.99
2018-10-21T06:25:22.163Z,88.09
2018-10-21T06:26:02.717Z,88.28
2018-10-21T06:26:43.271Z,87.99
2018-10-21T06:27:23.845Z,87.9
2018-10-21T06:28:04.395Z,88.09
2018-10-21T06:28:44.961Z,87.9
2018-10-21T06:29:25.514Z,88.09
2018-10-21T06:30:06.073Z,87.8
2018-10-21T06:30:46.632Z,88.18
2018-10-21T06:31:27.190Z,88.09
2018-10-21T06:32:07.753Z,87.52
2018-10-21T06:32:48.334Z,87.52
2018-10-21T06:33:28.916Z,87.9
2018-10-21T06:34:09.454Z,88.09
2018-10-21T06:34:50.017Z,87.99
2018-10-21T06:35:30.596Z,87.71
2018-10-21T06:36:11.143Z,88.09
2018-10-21T06:36:51.813Z,88.37
2018-10-21T06:37:32.263Z,88.66
2018-10-21T06:38:12.840Z,88.37
2018-10-21T06:38:53.397Z,88.18
2018-10-21T06:39:33.949Z,87.8
2018-10-21T06:40:14.523Z,87.9
2018-10-21T06:40:55.104Z,87.9
2018-10-21T06:41:35.667Z,87.99
2018-10-21T06:42:16.234Z,88.09
2018-10-21T06:42:56.783Z,87.99
2018-10-21T06:43:37.348Z,87.52
2018-10-21T06:44:17.914Z,87.61
2018-10-21T06:44:58.517Z,87.46
2018-10-21T06:45:39.042Z,87.9
2018-10-21T06:46:19.596Z,87.61
2018-10-21T06:47:00.156Z,87.99
2018-10-21T06:47:40.721Z,87.99
2018-10-21T06:48:21.334Z,88.04
2018-10-21T06:49:01.872Z,87.8
2018-10-21T06:49:42.424Z,87.71
2018-10-21T06:50:22.977Z,87.75
2018-10-21T06:51:03.584Z,88.56
2018-10-21T06:51:44.088Z,88.46
2018-10-21T06:52:24.640Z,88.51
2018-10-21T06:53:05.191Z,88.66
2018-10-21T06:53:45.780Z,92.41
2018-10-21T06:54:26.341Z,99.17
2018-10-21T06:55:06.931Z,99.99
2018-10-21T06:55:47.501Z,99.99
2018-10-21T06:56:28.215Z,99.99
2018-10-21T06:57:08.782Z,99.99
2018-10-21T06:57:49.232Z,99.99
2018-10-21T06:58:29.761Z,99.99
2018-10-21T06:59:10.323Z,99.22
2018-10-21T06:59:50.870Z,98.36
2018-10-21T07:00:31.548Z,96.36
2018-10-21T07:01:12.124Z,93.55
2018-10-21T07:01:53.049Z,91.46
2018-10-21T07:02:33.878Z,90.22
2018-10-21T07:03:14.450Z,88.31
2018-10-21T07:03:55.293Z,86.49
2018-10-21T07:04:35.932Z,86.78
2018-10-21T07:05:16.387Z,86.16
2018-10-21T07:05:57.163Z,84.53
2018-10-21T07:06:37.871Z,83.58
2018-10-21T07:07:18.548Z,83.48
2018-10-21T07:07:59.186Z,83.48
2018-10-21T07:08:39.853Z,83.48
2018-10-21T07:09:20.402Z,82.72
2018-10-21T07:10:01.241Z,81.96
2018-10-21T07:10:42.051Z,80.62
2018-10-21T07:11:23.078Z,79.38
2018-10-21T07:12:04.644Z,79.28
2018-10-21T07:12:45.203Z,79.1
2018-10-21T07:13:26.126Z,78.94
2018-10-21T07:14:07.021Z,78.56
2018-10-21T07:14:47.578Z,78.47
2018-10-21T07:15:28.141Z,77.8
2018-10-21T07:16:08.756Z,77.42
2018-10-21T07:16:49.463Z,77.42
2018-10-21T07:17:30.282Z,76.94
2018-10-21T07:18:11.098Z,76.75
2018-10-21T07:18:51.984Z,76.37
2018-10-21T07:19:32.953Z,75.22
2018-10-21T07:20:14.224Z,75.03
2018-10-21T07:20:54.997Z,75.13
2018-10-21T07:21:36.108Z,75.03
2018-10-21T07:22:17.162Z,74.74
2018-10-21T07:22:58.011Z,73.88
2018-10-21T07:23:38.941Z,74.37
2018-10-21T07:24:19.631Z,73.88
2018-10-21T07:25:00.382Z,74.17
2018-10-21T07:25:41.370Z,73.98
2018-10-21T07:26:22.324Z,74.11
2018-10-21T07:27:03.439Z,74.11
2018-10-21T07:27:44.129Z,73.44
2018-10-21T07:28:25.045Z,73.32
2018-10-21T07:29:05.826Z,73.07
2018-10-21T07:29:46.493Z,72.58
2018-10-21T07:30:27.177Z,72.68
2018-10-21T07:31:07.771Z,72.93
2018-10-21T07:31:48.343Z,73.54
2018-10-21T07:32:28.966Z,73.83
2018-10-21T07:33:09.527Z,74.11
2018-10-21T07:33:50.117Z,73.83
2018-10-21T07:34:30.942Z,73.73
2018-10-21T07:35:11.573Z,73.92
2018-10-21T07:35:52.133Z,73.73
2018-10-21T07:36:32.814Z,73.54
2018-10-21T07:37:13.296Z,73.07
2018-10-21T07:37:53.999Z,72.49
2018-10-21T07:38:34.604Z,72.3
2018-10-21T07:39:15.224Z,72.68
2018-10-21T07:39:55.806Z,72.33
2018-10-21T07:40:36.484Z,72.53
2018-10-21T07:41:17.212Z,72.14
2018-10-21T07:41:58.039Z,72.14
2018-10-21T07:42:38.628Z,71.95
2018-10-21T07:43:19.189Z,70.81
2018-10-21T07:43:59.824Z,71.09
2018-10-21T07:44:40.606Z,71.38
2018-10-21T07:45:21.334Z,71.67
2018-10-21T07:46:02.019Z,71.28
2018-10-21T07:46:42.881Z,71.42
2018-10-21T07:47:23.456Z,70.75
2018-10-21T07:48:04.347Z,69.82
2018-10-21T07:48:44.966Z,69.48
2018-10-21T07:49:25.619Z,67.37
2018-10-21T07:50:06.482Z,66.25
2018-10-21T07:50:47.152Z,64.66
2018-10-21T07:51:27.816Z,64.22
2018-10-21T07:52:08.589Z,62.71
2018-10-21T07:52:49.140Z,60.82
2018-10-21T07:53:29.813Z,59.19
2018-10-21T07:54:10.402Z,58.45
2018-10-21T07:54:51.016Z,57.4
2018-10-21T07:55:31.628Z,56.66
2018-10-21T07:56:12.263Z,55.34
2018-10-21T07:56:52.854Z,54.47
2018-10-21T07:57:33.578Z,53.8
2018-10-21T07:58:14.343Z,53.45
2018-10-21T07:58:54.923Z,52.97
2018-10-21T07:59:36.238Z,52.48
2018-10-21T08:00:16.836Z,51.35
2018-10-21T08:00:57.514Z,50.76
2018-10-21T08:01:38.057Z,50.78
2018-10-21T08:02:18.691Z,50.49
2018-10-21T08:02:59.274Z,50.68
2018-10-21T08:03:39.887Z,50.49
2018-10-21T08:04:20.461Z,50.01
2018-10-21T08:05:01.019Z,49.55
2018-10-21T08:05:41.589Z,49.27
2018-10-21T08:06:22.253Z,49.36
2018-10-21T08:07:02.841Z,49.17
2018-10-21T08:07:43.470Z,48.79
2018-10-21T08:08:24.110Z,48.11
2018-10-21T08:09:04.903Z,48.21
2018-10-21T08:09:45.514Z,47.92
2018-10-21T08:10:26.161Z,48.11
2018-10-21T08:11:06.741Z,48.02
2018-10-21T08:11:47.491Z,48.23
2018-10-21T08:12:28.040Z,48.03
2018-10-21T08:13:08.621Z,48.23
2018-10-21T08:13:49.201Z,48.52
2018-10-21T08:14:29.842Z,47.75
2018-10-21T08:15:10.478Z,47.94
2018-10-21T08:15:51.145Z,47.17
2018-10-21T08:16:31.780Z,47.36
2018-10-21T08:17:12.372Z,47.65
2018-10-21T08:17:52.944Z,47.75
2018-10-21T08:18:33.627Z,47.75
2018-10-21T08:19:15.072Z,47.56
2018-10-21T08:19:54.974Z,47.77
2018-10-21T08:20:35.580Z,47.29
2018-10-21T08:21:16.191Z,47.1
2018-10-21T08:21:57.157Z,47.19
2018-10-21T08:22:37.670Z,47.1
2018-10-21T08:23:18.249Z,46.91
2018-10-21T08:23:59.097Z,47.39
2018-10-21T08:24:39.791Z,47.29
2018-10-21T08:25:20.380Z,47.67
2018-10-21T08:26:00.995Z,47.19
2018-10-21T08:26:41.593Z,47.29
2018-10-21T08:27:22.415Z,46.91
2018-10-21T08:28:03.040Z,47
2018-10-21T08:28:43.633Z,46.62
2018-10-21T08:29:24.200Z,46.55
2018-10-21T08:30:04.775Z,46.15
2018-10-21T08:30:45.352Z,45.58
2018-10-21T08:31:25.918Z,45.29
2018-10-21T08:32:06.535Z,45.29
2018-10-21T08:32:47.129Z,45
2018-10-21T08:33:27.853Z,45.1
2018-10-21T08:34:08.440Z,45.29
2018-10-21T08:34:49.010Z,45.77
2018-10-21T08:35:29.632Z,45.56
2018-10-21T08:36:10.383Z,45.75
2018-10-21T08:36:50.820Z,46.62
2018-10-21T08:37:31.394Z,46.5
2018-10-21T08:38:11.972Z,46.69
2018-10-21T08:38:52.555Z,47.17
2018-10-21T08:39:33.156Z,46.95
2018-10-21T08:40:13.928Z,47.82
2018-10-21T08:40:54.672Z,47.72
2018-10-21T08:41:35.864Z,48.4
2018-10-21T08:42:17.203Z,48.38
2018-10-21T08:42:58.547Z,48.66
2018-10-21T08:43:39.845Z,49.22
2018-10-21T08:44:21.625Z,49.41